createdAt,value
2023-05-09T00:01:13.008Z,14.00
2023-05-09T00:03:40.255Z,15.00
2023-05-09T00:06:07.632Z,14.20
2023-05-09T00:08:34.438Z,14.60
2023-05-09T00:11:01.992Z,15.50
2023-05-09T00:13:28.844Z,21.30
2023-05-09T00:15:57.254Z,17.00
2023-05-09T00:18:24.205Z,22.00
2023-05-09T00:20:50.911Z,26.70
2023-05-09T00:23:17.989Z,21.60
2023-05-09T00:25:44.903Z,21.80
2023-05-09T00:28:11.754Z,21.80
2023-05-09T00:30:38.494Z,22.10
2023-05-09T00:33:05.364Z,19.90
2023-05-09T00:35:32.580Z,22.20
2023-05-09T00:37:59.730Z,15.80
2023-05-09T00:40:26.575Z,15.00
2023-05-09T00:42:53.443Z,15.10
2023-05-09T00:45:20.262Z,13.30
2023-05-09T00:47:47.148Z,13.50
2023-05-09T00:50:14.046Z,13.60
2023-05-09T00:52:40.784Z,12.70
2023-05-09T00:55:08.378Z,12.30
2023-05-09T00:57:36.010Z,12.60
2023-05-09T01:00:04.608Z,12.70
2023-05-09T01:02:32.385Z,12.40
2023-05-09T01:04:59.250Z,13.60
2023-05-09T01:07:30.017Z,13.00
2023-05-09T01:10:03.083Z,12.60
2023-05-09T01:12:33.007Z,12.20
2023-05-09T01:15:16.713Z,12.00
2023-05-09T01:17:53.067Z,11.80
2023-05-09T01:20:24.065Z,11.00
2023-05-09T01:23:13.132Z,11.80
2023-05-09T01:25:55.808Z,11.70
2023-05-09T01:28:40.876Z,11.20
2023-05-09T01:31:08.165Z,12.30
2023-05-09T01:33:36.803Z,11.70
2023-05-09T01:36:05.390Z,12.40
2023-05-09T01:38:32.132Z,12.00
2023-05-09T01:40:59.895Z,11.20
2023-05-09T01:43:27.997Z,11.60
2023-05-09T01:45:55.248Z,10.00
2023-05-09T01:48:22.278Z,10.80
2023-05-09T01:50:49.352Z,10.90
2023-05-09T01:53:16.771Z,11.10
2023-05-09T01:55:44.144Z,10.90
2023-05-09T01:58:12.728Z,10.60
2023-05-09T02:00:39.533Z,11.20
2023-05-09T02:03:06.354Z,10.40
2023-05-09T02:05:33.287Z,10.00
2023-05-09T02:08:01.344Z,10.70
2023-05-09T02:10:28.386Z,12.10
2023-05-09T02:12:55.260Z,10.80
2023-05-09T02:15:22.588Z,11.10
2023-05-09T02:17:50.689Z,12.40
2023-05-09T02:20:17.600Z,12.20
2023-05-09T02:22:44.444Z,12.80
2023-05-09T02:25:14.327Z,13.20
2023-05-09T02:27:41.526Z,12.00
2023-05-09T02:30:10.087Z,13.30
2023-05-09T02:32:37.383Z,13.60
2023-05-09T02:35:04.738Z,13.50
2023-05-09T02:37:31.657Z,12.30
2023-05-09T02:39:58.442Z,13.30
2023-05-09T02:42:26.377Z,12.70
2023-05-09T02:44:53.837Z,12.90
2023-05-09T02:47:20.987Z,15.10
2023-05-09T02:49:48.042Z,14.90
2023-05-09T02:52:15.404Z,15.40
2023-05-09T02:54:42.135Z,15.30
2023-05-09T02:57:09.170Z,15.00
2023-05-09T02:59:36.017Z,14.40
2023-05-09T03:02:03.272Z,14.80
2023-05-09T03:04:30.657Z,14.50
2023-05-09T03:06:57.576Z,14.70
2023-05-09T03:09:26.728Z,14.50
2023-05-09T03:11:55.265Z,13.20
2023-05-09T03:14:22.059Z,12.60
2023-05-09T03:16:48.909Z,14.00
2023-05-09T03:19:22.845Z,12.30
2023-05-09T03:21:49.613Z,13.10
2023-05-09T03:24:16.862Z,12.70
2023-05-09T03:26:43.731Z,12.10
2023-05-09T03:29:10.892Z,8.50
2023-05-09T03:31:38.236Z,8.80
2023-05-09T03:34:05.946Z,10.60
2023-05-09T03:36:33.138Z,11.10
2023-05-09T03:39:00.049Z,11.40
2023-05-09T03:41:27.187Z,11.50
2023-05-09T03:43:54.351Z,12.20
2023-05-09T03:46:21.196Z,13.60
2023-05-09T03:48:48.357Z,13.60
2023-05-09T03:51:15.922Z,10.70
2023-05-09T03:53:45.689Z,10.90
2023-05-09T03:56:12.695Z,11.10
2023-05-09T03:58:45.393Z,11.00
2023-05-09T04:01:13.176Z,10.20
2023-05-09T04:03:40.717Z,10.10
2023-05-09T04:06:11.533Z,9.70
2023-05-09T04:08:40.806Z,9.70
2023-05-09T04:11:07.660Z,10.00
2023-05-09T04:13:35.135Z,9.30
2023-05-09T04:16:05.637Z,10.50
2023-05-09T04:18:32.783Z,10.90
2023-05-09T04:21:00.795Z,12.10
2023-05-09T04:23:27.760Z,11.80
2023-05-09T04:25:57.208Z,11.30
2023-05-09T04:28:25.280Z,10.90
2023-05-09T04:30:52.310Z,11.80
2023-05-09T04:33:19.559Z,10.60
2023-05-09T04:35:46.618Z,10.10
2023-05-09T04:38:13.896Z,11.20
2023-05-09T04:40:41.038Z,11.60
2023-05-09T04:43:08.078Z,12.30
2023-05-09T04:45:35.554Z,11.90
2023-05-09T04:48:02.451Z,13.70
2023-05-09T04:50:29.669Z,15.00
2023-05-09T04:52:56.412Z,12.50
2023-05-09T04:55:23.446Z,12.10
2023-05-09T04:57:50.732Z,11.60
2023-05-09T05:00:18.617Z,11.70
2023-05-09T05:02:47.245Z,10.50
2023-05-09T05:05:14.301Z,11.70
2023-05-09T05:07:42.956Z,11.30
2023-05-09T05:10:11.340Z,10.30
2023-05-09T05:12:38.785Z,10.20
2023-05-09T05:15:08.520Z,9.80
2023-05-09T05:17:35.633Z,9.60
2023-05-09T05:20:06.425Z,9.00
2023-05-09T05:22:33.366Z,8.20
2023-05-09T05:25:00.211Z,8.80
2023-05-09T05:27:27.438Z,8.20
2023-05-09T05:29:54.287Z,8.10
2023-05-09T05:32:21.031Z,8.00
2023-05-09T05:34:48.170Z,7.20
2023-05-09T05:37:15.217Z,7.60
2023-05-09T05:39:42.375Z,8.10
2023-05-09T05:44:20.496Z,8.00
2023-05-09T05:46:47.670Z,8.20
2023-05-09T05:49:14.718Z,7.40
2023-05-09T05:51:41.526Z,7.30
2023-05-09T05:54:08.561Z,7.70
2023-05-09T05:56:35.529Z,7.70
2023-05-09T05:59:02.284Z,7.10
2023-05-09T06:01:29.028Z,7.70
2023-05-09T06:03:57.901Z,7.30
2023-05-09T06:06:29.279Z,7.60
2023-05-09T06:08:56.424Z,7.60
2023-05-09T06:11:23.393Z,7.50
2023-05-09T06:13:50.103Z,7.40
2023-05-09T06:16:20.080Z,7.90
2023-05-09T06:18:49.359Z,7.50
2023-05-09T06:21:16.091Z,7.80
2023-05-09T06:23:57.754Z,7.40
2023-05-09T06:26:28.810Z,7.60
2023-05-09T06:28:56.147Z,7.30
2023-05-09T06:31:24.899Z,6.90
2023-05-09T06:33:52.940Z,7.00
2023-05-09T06:36:20.725Z,7.10
2023-05-09T06:38:47.598Z,6.60
2023-05-09T06:41:14.316Z,6.70
2023-05-09T06:43:41.391Z,7.00
2023-05-09T06:46:08.322Z,6.20
2023-05-09T06:48:35.183Z,6.10
2023-05-09T06:51:02.304Z,5.30
2023-05-09T06:53:29.045Z,5.30
2023-05-09T06:55:55.799Z,6.50
2023-05-09T06:58:23.356Z,7.60
2023-05-09T07:00:50.197Z,7.50
2023-05-09T07:03:17.108Z,8.70
2023-05-09T07:05:44.184Z,7.70
2023-05-09T07:08:10.985Z,7.20
2023-05-09T07:10:39.027Z,6.40
2023-05-09T07:13:06.334Z,7.30
2023-05-09T07:15:41.213Z,6.30
2023-05-09T07:18:09.333Z,6.50
2023-05-09T07:20:36.389Z,6.60
2023-05-09T07:23:04.192Z,7.40
2023-05-09T07:25:31.083Z,6.00
2023-05-09T07:27:58.540Z,5.90
2023-05-09T07:30:25.457Z,7.20
2023-05-09T07:32:52.362Z,6.40
2023-05-09T07:35:20.073Z,5.40
2023-05-09T07:37:46.904Z,5.80
2023-05-09T07:40:14.542Z,5.80
2023-05-09T07:42:45.109Z,6.00
2023-05-09T07:45:11.964Z,6.10
2023-05-09T07:47:38.957Z,6.60
2023-05-09T07:50:09.008Z,6.10
2023-05-09T07:52:36.338Z,5.10
2023-05-09T07:55:05.007Z,5.60
2023-05-09T07:57:36.400Z,5.30
2023-05-09T08:00:10.555Z,5.00
2023-05-09T08:02:45.960Z,5.00
2023-05-09T08:05:13.942Z,5.10
2023-05-09T08:07:40.950Z,5.70
2023-05-09T08:10:11.614Z,5.70
2023-05-09T08:12:38.724Z,4.90
2023-05-09T08:15:06.255Z,5.20
2023-05-09T08:17:33.076Z,4.90
2023-05-09T08:19:59.938Z,5.50
2023-05-09T08:22:26.667Z,5.70
2023-05-09T08:24:53.608Z,4.60
2023-05-09T08:27:20.335Z,4.30
2023-05-09T08:29:47.081Z,4.60
2023-05-09T08:32:14.293Z,4.30
2023-05-09T08:34:41.241Z,4.80
2023-05-09T08:37:08.516Z,4.10
2023-05-09T08:39:35.267Z,3.90
2023-05-09T08:42:02.525Z,4.00
2023-05-09T08:44:29.927Z,4.70
2023-05-09T08:46:59.625Z,3.80
2023-05-09T08:49:26.733Z,4.30
2023-05-09T08:51:53.780Z,3.30
2023-05-09T08:54:22.874Z,3.70
2023-05-09T08:56:50.377Z,4.50
2023-05-09T08:59:17.896Z,3.90
2023-05-09T09:01:44.756Z,3.70
2023-05-09T09:04:14.690Z,3.50
2023-05-09T09:06:41.716Z,3.00
2023-05-09T09:09:09.129Z,3.00
2023-05-09T09:11:36.474Z,3.50
2023-05-09T09:14:16.637Z,3.50
2023-05-09T09:16:44.591Z,3.70
2023-05-09T09:19:17.215Z,3.30
2023-05-09T09:21:45.550Z,3.00
2023-05-09T09:24:13.047Z,3.30
2023-05-09T09:26:47.956Z,3.10
2023-05-09T09:29:15.063Z,2.80
2023-05-09T09:31:47.061Z,2.80
2023-05-09T09:34:21.497Z,3.10
2023-05-09T09:36:48.642Z,3.40
2023-05-09T09:39:15.684Z,3.00
2023-05-09T09:41:43.858Z,3.20
2023-05-09T09:44:17.452Z,3.00
2023-05-09T09:46:48.552Z,2.90
2023-05-09T09:49:16.929Z,3.30
2023-05-09T09:51:44.493Z,2.90
2023-05-09T09:54:12.354Z,3.50
2023-05-09T09:56:43.862Z,3.00
2023-05-09T09:59:15.934Z,3.30
2023-05-09T10:02:07.052Z,2.90
2023-05-09T10:07:05.091Z,3.10
2023-05-09T10:09:33.005Z,3.00
2023-05-09T10:12:04.379Z,3.20
2023-05-09T10:14:33.587Z,3.00
2023-05-09T10:17:03.304Z,3.10
2023-05-09T10:19:30.246Z,2.90
2023-05-09T10:21:58.537Z,2.80
2023-05-09T10:24:39.350Z,3.30
2023-05-09T10:27:12.971Z,2.70
2023-05-09T10:29:49.501Z,3.00
2023-05-09T10:32:20.577Z,3.10
2023-05-09T10:34:49.235Z,2.60
2023-05-09T10:37:16.171Z,2.90
2023-05-09T10:39:44.441Z,2.70
2023-05-09T10:42:11.218Z,2.80
2023-05-09T10:44:38.335Z,2.80
2023-05-09T10:47:05.266Z,2.80
2023-05-09T10:49:32.510Z,3.00
2023-05-09T10:52:00.934Z,2.50
2023-05-09T10:54:30.707Z,3.00
2023-05-09T10:56:58.042Z,2.70
2023-05-09T10:59:41.257Z,2.90
2023-05-09T11:02:12.904Z,2.50
2023-05-09T11:07:26.796Z,2.80
2023-05-09T11:10:07.174Z,2.50
2023-05-09T11:12:33.928Z,2.50
2023-05-09T11:15:08.085Z,3.00
2023-05-09T11:17:38.330Z,2.60
2023-05-09T11:20:06.561Z,2.70
2023-05-09T11:22:44.354Z,2.60
2023-05-09T11:25:13.210Z,2.60
2023-05-09T11:27:42.382Z,2.40
2023-05-09T11:30:11.145Z,2.70
2023-05-09T11:32:55.619Z,2.20
2023-05-09T11:35:23.531Z,2.20
2023-05-09T11:38:04.502Z,2.60
2023-05-09T11:40:34.784Z,3.30
2023-05-09T11:43:02.015Z,2.70
2023-05-09T11:45:32.542Z,2.50
2023-05-09T11:48:00.526Z,2.60
2023-05-09T11:50:27.405Z,5.40
2023-05-09T11:52:55.072Z,2.30
2023-05-09T11:55:22.887Z,2.50
2023-05-09T11:57:51.728Z,2.30
2023-05-09T12:00:25.776Z,2.70
2023-05-09T12:02:53.114Z,2.00
2023-05-09T12:05:21.432Z,2.00
2023-05-09T12:07:48.464Z,2.40
2023-05-09T12:10:16.627Z,1.90
2023-05-09T12:12:45.429Z,1.90
2023-05-09T12:15:13.969Z,2.10
2023-05-09T12:17:42.866Z,2.10
2023-05-09T12:20:09.979Z,2.20
2023-05-09T12:22:39.631Z,1.90
2023-05-09T12:25:08.388Z,1.90
2023-05-09T12:27:35.644Z,1.80
2023-05-09T12:30:03.926Z,2.40
2023-05-09T12:32:33.044Z,2.10
2023-05-09T12:35:00.302Z,2.10
2023-05-09T12:37:27.216Z,2.50
2023-05-09T12:40:05.001Z,2.00
2023-05-09T12:42:32.700Z,2.10
2023-05-09T12:44:59.654Z,2.00
2023-05-09T12:47:28.878Z,1.70
2023-05-09T12:49:59.573Z,1.90
2023-05-09T12:52:34.552Z,2.20
2023-05-09T12:55:09.103Z,2.10
2023-05-09T12:57:36.134Z,2.00
2023-05-09T13:00:04.750Z,2.40
2023-05-09T13:02:40.000Z,1.80
2023-05-09T13:05:11.216Z,2.00
2023-05-09T13:07:49.710Z,2.10
2023-05-09T13:10:23.680Z,1.90
2023-05-09T13:12:51.542Z,2.00
2023-05-09T13:15:20.584Z,1.80
2023-05-09T13:17:48.196Z,1.90
2023-05-09T13:20:15.347Z,2.40
2023-05-09T13:22:43.948Z,1.80
2023-05-09T13:25:11.303Z,2.20
2023-05-09T13:27:38.138Z,1.80
2023-05-09T13:30:07.763Z,2.00
2023-05-09T13:32:35.067Z,2.10
2023-05-09T13:35:02.256Z,1.90
2023-05-09T13:37:29.278Z,1.60
2023-05-09T13:39:56.008Z,2.00
2023-05-09T13:42:22.755Z,2.10
2023-05-09T13:44:49.482Z,1.70
2023-05-09T13:47:16.237Z,2.00
2023-05-09T13:49:42.965Z,2.10
2023-05-09T13:52:09.924Z,1.80
2023-05-09T13:54:37.079Z,1.60
2023-05-09T13:57:04.638Z,1.60
2023-05-09T13:59:31.993Z,1.70
2023-05-09T14:02:00.121Z,1.90
2023-05-09T14:04:27.840Z,1.70
2023-05-09T14:06:55.201Z,1.60
2023-05-09T14:09:22.653Z,1.90
2023-05-09T14:11:51.739Z,1.70
2023-05-09T14:14:22.381Z,1.80
2023-05-09T14:16:49.444Z,1.80
2023-05-09T14:19:16.490Z,1.70
2023-05-09T14:21:43.848Z,1.80
2023-05-09T14:24:14.264Z,1.60
2023-05-09T14:26:42.807Z,1.90
2023-05-09T14:29:09.712Z,1.60
2023-05-09T14:31:36.994Z,2.00
2023-05-09T14:34:05.282Z,1.70
2023-05-09T14:36:35.065Z,1.90
2023-05-09T14:39:02.455Z,1.90
2023-05-09T14:41:29.190Z,2.00
2023-05-09T14:43:56.238Z,1.90
2023-05-09T14:46:26.477Z,2.20
2023-05-09T14:48:53.969Z,2.00
2023-05-09T14:51:21.921Z,2.20
2023-05-09T14:53:49.716Z,1.90
2023-05-09T14:56:18.226Z,1.80
2023-05-09T14:58:45.183Z,1.60
2023-05-09T15:01:11.972Z,1.70
2023-05-09T15:03:39.654Z,1.60
2023-05-09T15:06:07.027Z,1.80
2023-05-09T15:08:35.569Z,2.20
2023-05-09T15:11:02.480Z,2.00
2023-05-09T15:13:29.447Z,1.80
2023-05-09T15:15:57.198Z,2.10
2023-05-09T15:18:28.618Z,1.80
2023-05-09T15:20:56.021Z,1.70
2023-05-09T15:23:23.120Z,1.90
2023-05-09T15:25:50.011Z,1.80
2023-05-09T15:28:16.775Z,1.80
2023-05-09T15:30:45.380Z,1.60
2023-05-09T15:33:13.309Z,1.50
2023-05-09T15:35:40.273Z,1.50
2023-05-09T15:38:07.915Z,1.60
2023-05-09T15:40:34.773Z,1.80
2023-05-09T15:43:07.984Z,1.70
2023-05-09T15:45:38.816Z,2.00
2023-05-09T15:48:05.838Z,1.90
2023-05-09T15:50:32.904Z,1.80
2023-05-09T15:52:59.729Z,1.70
2023-05-09T15:55:28.608Z,1.80
2023-05-09T15:57:55.601Z,2.10
2023-05-09T16:00:22.785Z,2.00
2023-05-09T16:02:50.304Z,2.40
2023-05-09T16:05:17.641Z,2.00
2023-05-09T16:07:46.027Z,1.90
2023-05-09T16:10:13.639Z,1.80
2023-05-09T16:12:40.705Z,1.70
2023-05-09T16:15:08.496Z,1.50
2023-05-09T16:17:35.342Z,1.60
2023-05-09T16:20:02.363Z,1.80
2023-05-09T16:22:29.242Z,1.70
2023-05-09T16:24:56.349Z,2.10
2023-05-09T16:27:23.074Z,2.20
2023-05-09T16:29:50.132Z,2.40
2023-05-09T16:32:17.172Z,2.20
2023-05-09T16:34:43.918Z,2.10
2023-05-09T16:37:10.703Z,2.60
2023-05-09T16:39:37.614Z,3.50
2023-05-09T16:42:05.508Z,2.60
2023-05-09T16:44:32.373Z,3.50
2023-05-09T16:46:59.190Z,3.30
2023-05-09T16:49:26.246Z,4.00
2023-05-09T16:51:53.088Z,5.70
2023-05-09T16:54:20.023Z,4.60
2023-05-09T16:56:46.875Z,3.30
2023-05-09T16:59:13.635Z,4.70
2023-05-09T17:01:41.966Z,5.90
2023-05-09T17:04:08.847Z,6.20
2023-05-09T17:06:35.675Z,4.50
2023-05-09T17:09:02.449Z,3.60
2023-05-09T17:11:29.168Z,2.60
2023-05-09T17:13:56.016Z,3.10
2023-05-09T17:16:22.964Z,3.10
2023-05-09T17:18:49.713Z,3.10
2023-05-09T17:21:16.977Z,3.10
2023-05-09T17:23:44.103Z,2.60
2023-05-09T17:26:10.912Z,2.90
2023-05-09T17:28:37.768Z,2.50
2023-05-09T17:31:04.572Z,2.80
2023-05-09T17:33:31.495Z,2.40
2023-05-09T17:36:00.173Z,3.00
2023-05-09T17:38:27.063Z,2.90
2023-05-09T17:40:53.835Z,2.70
2023-05-09T17:43:21.874Z,3.10
2023-05-09T17:45:48.729Z,3.30
2023-05-09T17:48:16.057Z,3.60
2023-05-09T17:50:43.875Z,5.20
2023-05-09T17:53:10.687Z,4.70
2023-05-09T17:55:37.525Z,3.50
2023-05-09T17:58:04.272Z,3.40
2023-05-09T18:02:02.123Z,4.30
2023-05-09T18:04:31.081Z,3.70
2023-05-09T18:06:57.822Z,3.20
2023-05-09T18:09:24.660Z,3.30
2023-05-09T18:11:51.433Z,3.40
2023-05-09T18:14:18.552Z,4.20
2023-05-09T18:16:45.525Z,4.20
2023-05-09T18:19:12.883Z,4.60
2023-05-09T18:21:39.606Z,4.60
2023-05-09T18:24:09.127Z,4.70
2023-05-09T18:26:36.074Z,5.10
2023-05-09T18:29:03.100Z,5.40
2023-05-09T18:31:31.492Z,5.50
2023-05-09T18:33:58.549Z,5.70
2023-05-09T18:36:29.925Z,6.10
2023-05-09T18:38:56.650Z,6.80
2023-05-09T18:41:24.837Z,6.70
2023-05-09T18:43:51.788Z,6.50
2023-05-09T18:46:21.089Z,6.90
2023-05-09T18:48:52.461Z,7.20
2023-05-09T18:51:19.900Z,7.80
2023-05-09T18:53:47.508Z,9.20
2023-05-09T18:56:14.480Z,8.50
2023-05-09T18:58:41.506Z,8.50
2023-05-09T19:01:11.490Z,8.40
2023-05-09T19:03:45.788Z,8.30
2023-05-09T19:06:13.690Z,9.20
2023-05-09T19:08:41.668Z,8.90
2023-05-09T19:11:08.651Z,8.20
2023-05-09T19:13:38.410Z,14.30
2023-05-09T19:16:05.755Z,9.70
2023-05-09T19:18:33.055Z,8.90
2023-05-09T19:20:59.945Z,9.00
2023-05-09T19:23:27.079Z,9.90
2023-05-09T19:25:53.934Z,11.60
2023-05-09T19:28:22.423Z,13.50
2023-05-09T19:30:50.011Z,13.10
2023-05-09T19:33:17.036Z,12.00
2023-05-09T19:35:44.599Z,13.00
2023-05-09T19:38:12.192Z,24.90
2023-05-09T19:40:39.728Z,66.70
2023-05-09T19:43:06.663Z,56.00
2023-05-09T19:45:33.931Z,51.00
2023-05-09T19:48:00.783Z,42.10
2023-05-09T19:50:27.629Z,19.50
2023-05-09T19:52:54.469Z,11.80
2023-05-09T19:55:21.514Z,18.70
2023-05-09T19:57:48.409Z,12.70
2023-05-09T20:00:16.136Z,12.60
2023-05-09T20:02:43.220Z,15.60
2023-05-09T20:05:10.165Z,11.80
2023-05-09T20:07:36.934Z,13.50
2023-05-09T20:10:03.984Z,13.30
2023-05-09T20:12:30.750Z,14.70
2023-05-09T20:14:57.515Z,14.00
2023-05-09T20:17:24.293Z,12.80
2023-05-09T20:19:51.413Z,14.10
2023-05-09T20:22:18.174Z,15.30
2023-05-09T20:24:45.026Z,11.00
2023-05-09T20:27:12.992Z,10.80
2023-05-09T20:29:39.937Z,10.60
2023-05-09T20:32:06.764Z,11.20
2023-05-09T20:34:33.631Z,11.80
2023-05-09T20:37:01.016Z,10.70
2023-05-09T20:39:27.729Z,10.90
2023-05-09T20:41:55.836Z,10.40
2023-05-09T20:44:22.642Z,10.50
2023-05-09T20:46:49.490Z,9.90
2023-05-09T20:49:16.432Z,9.20
2023-05-09T20:51:43.284Z,9.90
2023-05-09T20:54:10.140Z,9.90
2023-05-09T20:56:36.977Z,9.20
2023-05-09T20:59:05.371Z,9.10
2023-05-09T21:01:35.548Z,9.20
2023-05-09T21:04:05.549Z,10.40
2023-05-09T21:06:33.136Z,12.80
2023-05-09T21:08:59.923Z,13.80
2023-05-09T21:11:26.674Z,14.50
2023-05-09T21:13:53.604Z,13.70
2023-05-09T21:16:20.378Z,14.90
2023-05-09T21:18:47.131Z,14.30
2023-05-09T21:21:13.930Z,14.50
2023-05-09T21:23:40.688Z,13.70
2023-05-09T21:26:07.523Z,14.30
2023-05-09T21:28:34.361Z,14.00
2023-05-09T21:31:01.684Z,14.60
2023-05-09T21:33:29.085Z,13.50
2023-05-09T21:35:56.142Z,14.40
2023-05-09T21:38:22.980Z,13.20
2023-05-09T21:40:51.252Z,13.40
2023-05-09T21:43:18.336Z,10.80
2023-05-09T21:45:45.717Z,12.90
2023-05-09T21:48:12.554Z,12.00
2023-05-09T21:50:39.486Z,12.40
2023-05-09T21:53:06.338Z,14.60
2023-05-09T21:55:33.276Z,14.20
2023-05-09T21:58:00.149Z,11.10
2023-05-09T22:00:26.867Z,10.60
2023-05-09T22:02:53.679Z,10.40
2023-05-09T22:05:20.655Z,10.00
2023-05-09T22:07:47.409Z,10.40
2023-05-09T22:10:14.354Z,10.00
2023-05-09T22:12:41.306Z,10.60
2023-05-09T22:15:08.858Z,10.30
2023-05-09T22:17:35.918Z,10.10
2023-05-09T22:20:02.854Z,9.20
2023-05-09T22:22:29.882Z,9.60
2023-05-09T22:24:56.830Z,10.00
2023-05-09T22:27:23.680Z,9.40
2023-05-09T22:29:50.521Z,11.10
2023-05-09T22:32:17.362Z,12.00
2023-05-09T22:34:47.387Z,12.00
2023-05-09T22:37:14.560Z,11.10
2023-05-09T22:39:43.552Z,11.70
2023-05-09T22:42:11.377Z,10.20
2023-05-09T22:44:39.182Z,10.70
2023-05-09T22:47:08.114Z,10.80
2023-05-09T22:49:35.630Z,10.90
2023-05-09T22:52:02.690Z,11.30
2023-05-09T22:54:29.532Z,11.70
2023-05-09T22:59:57.094Z,11.20
2023-05-09T23:02:24.099Z,11.90
2023-05-09T23:04:51.056Z,11.50
2023-05-09T23:07:18.014Z,11.40
2023-05-09T23:09:45.229Z,10.70
2023-05-09T23:12:12.092Z,9.70
2023-05-09T23:14:38.847Z,11.50
2023-05-09T23:17:05.660Z,9.90
2023-05-09T23:19:32.915Z,10.70
2023-05-09T23:21:59.754Z,10.00
2023-05-09T23:24:26.601Z,9.60
2023-05-09T23:26:53.862Z,10.70
2023-05-09T23:29:20.901Z,10.90
2023-05-09T23:31:48.232Z,9.80
2023-05-09T23:34:15.245Z,9.60
2023-05-09T23:36:42.040Z,15.40
2023-05-09T23:39:09.531Z,11.90
2023-05-09T23:41:36.436Z,11.20
2023-05-09T23:44:03.502Z,11.30
2023-05-09T23:46:30.674Z,10.60
2023-05-09T23:48:57.687Z,11.00
2023-05-09T23:51:24.519Z,11.20
2023-05-09T23:53:51.671Z,10.60
2023-05-09T23:56:18.388Z,9.70
2023-05-09T23:58:45.378Z,9.40
